Data for 06/11/2006

Time Sea-Level Adjusted Pressure Absolute Pressure Temperature Relative Humidity Dew Point   
(mb) (inHg) (mb) (inHg) (C) (F) (%) (C) (F)
00:05 1017 30.03 846 24.98 9.8 49.6 90 8.3 46.9
00:10 1017 30.03 846 24.98 9.5 49.2 92 8.2 46.8
00:15 1017 30.03 846 24.98 9.4 48.9 92 8.1 46.6
00:20 1017 30.03 846 24.98 9.4 48.9 93 8.3 46.9
00:25 1017 30.03 846 24.98 9.3 48.7 94 8.3 47
00:30 1017 30.03 846 24.98 9.2 48.5 94 8.2 46.8
00:35 1017 30.03 846 24.98 9.1 48.4 95 8.4 47.1
00:40 1016 30 846 24.98 9 48.3 96 8.4 47.1
00:45 1016 30 846 24.98 9 48.2 96 8.4 47
00:50 1016 30 846 24.98 9 48.2 96 8.4 47.2
00:55 1017 30.03 846 24.98 9.1 48.3 96 8.4 47.1
01:00 1017 30.03 846 24.98 9.1 48.3 95 8.3 46.9
01:05 1016 30 846 24.98 9.1 48.4 95 8.3 47
01:10 1016 30 846 24.98 9.1 48.5 95 8.4 47.2
01:15 1016 30 845 24.95 9.2 48.5 95 8.4 47.1
01:20 1016 30 845 24.95 9.1 48.4 96 8.5 47.3
01:25 1016 30 845 24.95 9 48.2 96 8.5 47.2
01:30 1016 30 845 24.95 9 48.2 96 8.4 47.1
01:35 1016 30 845 24.95 9 48.3 96 8.4 47.1
01:40 1016 30 845 24.95 9 48.2 95 8.3 46.9
01:45 1016 30 845 24.95 9 48.2 95 8.3 46.9
01:50 1016 30 845 24.95 9.1 48.5 95 8.4 47.1
01:55 1016 30 845 24.95 9.2 48.6 94 8.4 47
02:00 1016 30 845 24.95 9.2 48.6 94 8.2 46.8
02:05 1016 30 845 24.95 9.3 48.7 93 8.3 46.9
02:10 1016 30 845 24.95 9.3 48.8 92 8.1 46.5
02:15 1016 30 845 24.95 9.3 48.7 91 7.8 46.1
02:20 1016 30 845 24.95 9.2 48.6 92 8 46.4
02:25 1016 30 845 24.95 9.1 48.4 93 8 46.4
02:30 1016 30 845 24.95 9.1 48.3 92 7.9 46.3
02:35 1016 30 845 24.95 9.1 48.3 93 8 46.4
02:40 1016 30 845 24.95 9.2 48.5 94 8.2 46.8
02:45 1016 30 845 24.95 9.2 48.5 93 8.2 46.7
02:50 1016 30 845 24.95 9.1 48.3 94 8.1 46.6
02:55 1016 30 845 24.95 9 48.2 94 8.1 46.6
03:00 1016 30 845 24.95 9 48.2 94 8.2 46.7
03:05 1016 30 845 24.95 9.1 48.4 94 8.2 46.7
03:10 1016 30 845 24.95 9 48.3 95 8.2 46.8
03:15 1016 30 845 24.95 9 48.2 95 8.2 46.7
03:20 1016 30 845 24.95 9.1 48.3 95 8.2 46.8
03:25 1016 30 845 24.95 9 48.2 94 8 46.4
03:30 1016 30 845 24.95 9.1 48.3 94 8.1 46.6
03:35 1016 30 845 24.95 9.1 48.3 93 8 46.4
03:40 1016 30 845 24.95 9 48.2 94 8 46.5
03:45 1016 30 845 24.95 8.9 48.1 94 8.1 46.5
03:50 1016 30 845 24.95 8.9 48 95 8.1 46.6
03:55 1016 30 845 24.95 8.9 48 95 8.1 46.5
04:00 1015 29.97 845 24.95 8.9 48 95 8.1 46.7
04:05 1015 29.97 845 24.95 8.8 47.9 95 8.1 46.6
04:10 1015 29.97 845 24.95 8.9 48 96 8.2 46.8
04:15 1015 29.97 845 24.95 8.9 48.1 95 8.2 46.8
04:20 1015 29.97 845 24.95 8.9 48.1 95 8.2 46.8
04:25 1015 29.97 845 24.95 8.9 48 96 8.3 46.9
04:30 1015 29.97 845 24.95 8.8 47.9 96 8.2 46.8
04:35 1015 29.97 845 24.95 8.8 47.9 96 8.2 46.8
04:40 1015 29.97 845 24.95 8.8 47.8 96 8.1 46.6
04:45 1015 29.97 845 24.95 8.8 47.9 96 8.2 46.7
04:50 1015 29.97 845 24.95 8.6 47.5 96 8 46.4
04:55 1015 29.97 844 24.92 8.6 47.6 96 8.1 46.5
05:00 1015 29.97 845 24.95 8.7 47.7 96 8.1 46.6
05:05 1015 29.97 844 24.92 8.8 47.8 95 8 46.5
05:10 1015 29.97 845 24.95 8.8 47.8 95 8 46.5
05:15 1015 29.97 845 24.95 8.9 48 95 8.2 46.7
05:20 1015 29.97 845 24.95 9 48.2 95 8.2 46.8
05:25 1015 29.97 845 24.95 9.1 48.3 95 8.3 46.9
05:30 1015 29.97 845 24.95 9.1 48.4 94 8.3 46.9
05:35 1015 29.97 845 24.95 9.1 48.3 93 8.1 46.5
05:40 1015 29.97 845 24.95 9.1 48.4 92 7.9 46.3
05:45 1015 29.97 845 24.95 9 48.2 91 7.6 45.7
05:50 1015 29.97 845 24.95 9 48.2 91 7.6 45.7
05:55 1015 29.97 845 24.95 9 48.2 91 7.6 45.6
06:00 1015 29.97 845 24.95 9 48.2 92 7.7 45.9
06:05 1015 29.97 845 24.95 9 48.1 92 7.7 45.8
06:10 1015 29.97 845 24.95 8.9 48.1 92 7.6 45.8
06:15 1015 29.97 845 24.95 8.8 47.8 94 7.8 46.1
06:20 1015 29.97 845 24.95 8.6 47.5 94 7.7 45.9
06:25 1015 29.97 845 24.95 8.5 47.4 94 7.7 45.8
06:30 1015 29.97 845 24.95 8.6 47.5 95 7.8 46.1
06:35 1016 30 845 24.95 8.7 47.6 94 7.8 46.1
06:40 1016 30 845 24.95 8.7 47.7 94 7.8 46
06:45 1016 30 845 24.95 8.8 47.8 93 7.7 45.9
06:50 1016 30 845 24.95 8.8 47.8 93 7.7 45.9
06:55 1016 30 845 24.95 8.7 47.7 94 7.8 46
07:00 1016 30 845 24.95 8.7 47.7 95 7.9 46.2
07:05 1016 30 845 24.95 8.7 47.7 94 7.8 46.1
07:10 1015 29.97 845 24.95 8.6 47.5 93 7.6 45.7
07:15 1015 29.97 845 24.95 8.7 47.6 93 7.6 45.7
07:20 1015 29.97 845 24.95 8.7 47.7 91 7.4 45.2
07:25 1016 30 845 24.95 8.8 47.9 92 7.6 45.7
07:30 1016 30 845 24.95 9 48.2 91 7.6 45.7
07:35 1015 29.97 845 24.95 9 48.3 91 7.6 45.7
07:40 1015 29.97 845 24.95 9.1 48.5 91 7.7 45.9
07:45 1015 29.97 845 24.95 9.4 49 91 8 46.4
07:50 1015 29.97 845 24.95 9.7 49.4 88 7.8 46
07:55 1015 29.97 845 24.95 10.1 50.1 85 7.7 45.8
08:00 1016 30 845 24.95 10.1 50.1 84 7.6 45.6
08:05 1016 30 845 24.95 10.1 50.1 85 7.6 45.7
08:10 1016 30 845 24.95 10.3 50.5 83 7.5 45.4
08:15 1016 30 845 24.95 9.9 49.8 85 7.5 45.5
08:20 1016 30 845 24.95 9.9 49.8 85 7.5 45.6
08:25 1016 30 845 24.95 10.1 50.2 85 7.7 45.8
08:30 1016 30 845 24.95 10.2 50.4 82 7.2 45
08:35 1016 30 845 24.95 10.1 50.2 83 7.3 45.1
08:40 1016 30 845 24.95 10.3 50.6 82 7.3 45.2
08:45 1016 30 845 24.95 10.5 50.8 81 7.3 45.1
08:50 1016 30 845 24.95 10.6 51 80 7.4 45.3
08:55 1016 30 845 24.95 10.6 51.1 81 7.6 45.6
09:00 1016 30 845 24.95 10.7 51.2 80 7.5 45.5
09:05 1016 30 845 24.95 10.8 51.4 80 7.5 45.5
09:10 1016 30 845 24.95 11 51.9 80 7.8 46
09:15 1016 30 845 24.95 11.6 52.8 76 7.5 45.5
09:20 1016 30 845 24.95 11.7 53 77 7.8 46
09:25 1016 30 845 24.95 11.9 53.5 75 7.6 45.8
09:30 1016 30 845 24.95 12.4 54.3 74 8 46.4
09:35 1016 30 845 24.95 12.5 54.5 74 8 46.3
09:40 1016 30 845 24.95 13.3 56 69 7.8 46.1
09:45 1016 30 845 24.95 13.7 56.6 70 8.3 46.9
09:50 1016 30 845 24.95 13.2 55.7 71 8.1 46.6
09:55 1016 30 845 24.95 12.8 55 70 7.5 45.5
10:00 1016 30 845 24.95 12.8 55.1 69 7.4 45.4
10:05 1016 30 845 24.95 13.3 56 70 7.9 46.3
10:10 1016 30 845 24.95 13.8 56.8 68 8.1 46.6
10:15 1016 30 845 24.95 14.1 57.3 68 8.3 47
10:20 1016 30 845 24.95 13.9 57.1 69 8.4 47.2
10:25 1016 30 845 24.95 13.5 56.2 71 8.4 47.1
10:30 1016 30 845 24.95 13.7 56.7 70 8.4 47.1
10:35 1016 30 845 24.95 13.8 56.8 71 8.6 47.6
10:40 1016 30 845 24.95 13.7 56.7 70 8.4 47
10:45 1016 30 845 24.95 14.2 57.5 69 8.6 47.5
10:50 1016 30 845 24.95 14.3 57.8 67 8.4 47.1
10:55 1016 30 845 24.95 14.1 57.3 69 8.5 47.2
11:00 1016 30 845 24.95 14.8 58.7 66 8.5 47.3
11:05 1016 30 845 24.95 15.4 59.8 64 8.8 47.9
11:10 1015 29.97 845 24.95 15.3 59.5 64 8.6 47.5
11:15 1015 29.97 845 24.95 15 59.1 63 8.2 46.8
11:20 1015 29.97 845 24.95 15.9 60.7 60 8.3 47
11:25 1015 29.97 845 24.95 16.1 61 59 8.2 46.8
11:30 1015 29.97 845 24.95 16.8 62.3 57 8.4 47.2
11:35 1015 29.97 845 24.95 16.7 62.1 58 8.5 47.3
11:40 1015 29.97 844 24.92 18.4 65.2 50 7.9 46.3
11:45 1015 29.97 844 24.92 18.9 66 51 8.6 47.4
11:50 1015 29.97 844 24.92 19.5 67.1 49 8.6 47.4
11:55 1015 29.97 844 24.92 19.6 67.2 47 8.1 46.6
12:00 1015 29.97 844 24.92 18.6 65.5 52 8.8 47.8
12:05 1015 29.97 844 24.92 17.8 64 53 8.2 46.8
12:10 1015 29.97 844 24.92 17.9 64.2 53 8.2 46.7
12:15 1015 29.97 844 24.92 18.4 65.2 52 8.5 47.2
12:20 1015 29.97 845 24.95 18.3 64.9 54 8.9 48
12:25 1015 29.97 845 24.95 17.5 63.5 59 9.4 48.9
12:30 1015 29.97 845 24.95 17.1 62.8 59 9.2 48.5
12:35 1015 29.97 845 24.95 18 64.4 53 8.3 46.9
12:40 1015 29.97 845 24.95 18.6 65.5 53 8.9 48
12:45 1015 29.97 845 24.95 18.8 65.9 53 9.2 48.5
12:50 1015 29.97 845 24.95 19 66.2 54 9.5 49.1
12:55 1016 30 845 24.95 19.3 66.7 53 9.5 49.1
13:00 1016 30 845 24.95 19.2 66.5 50 8.8 47.8
13:05 1016 30 845 24.95 18.7 65.7 52 8.9 48
13:10 1016 30 845 24.95 18.1 64.6 55 9.1 48.4
13:15 1015 29.97 845 24.95 17.9 64.2 54 8.6 47.5
13:20 1016 30 845 24.95 17.9 64.2 55 8.9 48
13:25 1016 30 845 24.95 17.9 64.2 56 9 48.2
13:30 1016 30 845 24.95 17.6 63.6 58 9.2 48.6
13:35 1015 29.97 845 24.95 16.9 62.3 60 9.2 48.6
13:40 1016 30 845 24.95 16.9 62.4 59 9 48.1
13:45 1015 29.97 845 24.95 17.2 62.9 58 8.9 48.1
13:50 1015 29.97 845 24.95 16.9 62.4 58 8.6 47.4
13:55 1015 29.97 845 24.95 17 62.6 60 9.2 48.6
14:00 1015 29.97 845 24.95 17.2 62.9 57 8.6 47.5
14:05 1015 29.97 845 24.95 17.8 64 55 8.6 47.5
14:10 1015 29.97 845 24.95 18.5 65.2 51 8.3 46.9
14:15 1015 29.97 845 24.95 18.5 65.4 51 8.4 47.2
14:20 1015 29.97 845 24.95 18.3 64.9 51 8 46.3
14:25 1015 29.97 845 24.95 18.8 65.8 48 7.6 45.8
14:30 1015 29.97 845 24.95 19.5 67 44 6.9 44.4
14:35 1015 29.97 844 24.92 19.3 66.8 46 7.7 45.8
14:40 1015 29.97 844 24.92 19.7 67.5 44 7.3 45.1
14:45 1015 29.97 844 24.92 19.8 67.6 39 5.5 41.9
14:50 1015 29.97 844 24.92 19.1 66.3 42 6.2 43.1
14:55 1015 29.97 844 24.92 19.6 67.3 37 4.8 40.6
15:00 1015 29.97 844 24.92 20 67.9 37 5 41
15:05 1015 29.97 844 24.92 20 68 36 4.5 40.1
15:10 1015 29.97 844 24.92 20.4 68.6 36 4.8 40.6
15:15 1015 29.97 844 24.92 20.4 68.8 36 5 41
15:20 1015 29.97 844 24.92 20.3 68.5 36 4.8 40.6
15:25 1015 29.97 844 24.92 20.3 68.6 34 4.1 39.4
15:30 1015 29.97 844 24.92 20.8 69.4 36 5.1 41.2
15:35 1015 29.97 845 24.95 21.2 70.1 33 4.2 39.6
15:40 1015 29.97 845 24.95 20.6 69.1 32 3.7 38.6
15:45 1015 29.97 845 24.95 20.6 69.1 32 3.3 38
15:50 1015 29.97 845 24.95 21.2 70.2 30 3.3 37.9
15:55 1015 29.97 845 24.95 21.5 70.6 32 4 39.3
16:00 1015 29.97 845 24.95 21.3 70.3 34 4.9 40.9
16:05 1015 29.97 845 24.95 20.8 69.4 34 4.7 40.4
16:10 1015 29.97 845 24.95 21 69.9 34 4.6 40.2
16:15 1015 29.97 845 24.95 21.1 70 34 4.8 40.7
16:20 1015 29.97 845 24.95 21.5 70.6 31 3.9 39
16:25 1016 30 845 24.95 21.7 71.1 33 5 41
16:30 1016 30 845 24.95 21.8 71.2 33 4.8 40.7
16:35 1016 30 845 24.95 21.3 70.4 33 4.6 40.3
16:40 1016 30 845 24.95 20.6 69.2 34 4.5 40
16:45 1016 30 845 24.95 20.7 69.3 35 4.8 40.7
16:50 1016 30 845 24.95 20.3 68.5 35 4.6 40.3
16:55 1016 30 845 24.95 20 67.9 36 4.5 40
17:00 1016 30 845 24.95 19.5 67 39 5.2 41.3
17:05 1016 30 845 24.95 19.5 67.1 37 4.5 40.2
17:10 1016 30 845 24.95 19.6 67.2 39 5.3 41.5
17:15 1016 30 845 24.95 19.7 67.5 38 5.2 41.3
17:20 1016 30 845 24.95 19.3 66.7 37 4.6 40.2
17:25 1016 30 845 24.95 19.2 66.6 36 3.9 39.1
17:30 1016 30 845 24.95 19.4 66.9 37 4.5 40
17:35 1016 30 845 24.95 19.5 67.1 36 4.1 39.3
17:40 1016 30 845 24.95 19.3 66.8 38 4.7 40.5
17:45 1016 30 845 24.95 19 66.3 36 3.8 38.9
17:50 1016 30 845 24.95 18.9 66 38 4.5 40.2
17:55 1016 30 845 24.95 19.6 67.3 37 4.7 40.5
18:00 1016 30 845 24.95 19.4 66.9 38 4.7 40.5
18:05 1016 30 845 24.95 19 66.1 40 5 41
18:10 1016 30 845 24.95 18.8 65.8 39 4.9 40.8
18:15 1016 30 845 24.95 18.6 65.4 41 5.2 41.4
18:20 1016 30 845 24.95 18.8 65.8 40 4.9 40.8
18:25 1016 30 845 24.95 18.5 65.2 41 5.3 41.5
18:30 1016 30 845 24.95 18.3 64.9 40 4.7 40.4
18:35 1016 30 845 24.95 19 66.2 41 5.5 41.9
18:40 1016 30 845 24.95 19.5 67 39 5.4 41.8
18:45 1016 30 845 24.95 18.7 65.7 41 5.3 41.6
18:50 1016 30 845 24.95 18.6 65.4 43 5.9 42.6
18:55 1016 30 845 24.95 18.9 66 43 6.3 43.3
19:00 1016 30 845 24.95 18.4 65.1 47 7.1 44.8
19:05 1016 30 845 24.95 17.9 64.3 47 6.5 43.7
19:10 1016 30 845 24.95 18 64.3 48 6.9 44.5
19:15 1016 30 845 24.95 17.9 64.2 50 7.5 45.5
19:20 1016 30 845 24.95 17.9 64.2 50 7.4 45.3
19:25 1016 30 845 24.95 17.8 64 50 7.2 45
19:30 1016 30 845 24.95 17.8 64.1 49 7.2 44.9
19:35 1016 30 845 24.95 18 64.4 47 6.7 44.1
19:40 1016 30 845 24.95 18 64.5 47 6.6 43.9
19:45 1016 30 845 24.95 18 64.4 48 6.9 44.4
19:50 1016 30 845 24.95 18 64.4 48 6.9 44.5
19:55 1016 30 845 24.95 18 64.5 49 7.4 45.3
20:00 1016 30 845 24.95 17.9 64.2 50 7.5 45.6
20:05 1016 30 845 24.95 17.8 64.1 51 7.5 45.6
20:10 1016 30 845 24.95 17.6 63.7 51 7.5 45.6
20:15 1016 30 845 24.95 17.6 63.7 51 7.6 45.6
20:20 1016 30 845 24.95 17.5 63.6 51 7.5 45.5
20:25 1016 30 845 24.95 17.5 63.5 51 7.3 45.1
20:30 1016 30 846 24.98 17.5 63.4 51 7.4 45.4
20:35 1016 30 846 24.98 17.3 63.1 51 7.1 44.8
20:40 1016 30 846 24.98 17.1 62.8 52 7.2 45
20:45 1016 30 846 24.98 16.7 62.1 52 6.8 44.3
20:50 1017 30.03 846 24.98 16.5 61.8 54 7.2 45
20:55 1017 30.03 846 24.98 16.3 61.3 57 7.8 46
21:00 1017 30.03 846 24.98 16.2 61.1 59 8.2 46.7
21:05 1017 30.03 846 24.98 16.1 60.9 60 8.5 47.3
21:10 1017 30.03 846 24.98 15.7 60.2 63 8.6 47.5
21:15 1017 30.03 846 24.98 15.6 60.1 63 8.6 47.6
21:20 1017 30.03 846 24.98 15.6 60.1 65 9.2 48.6
21:25 1017 30.03 846 24.98 15.4 59.8 65 8.9 48
21:30 1017 30.03 846 24.98 15.2 59.4 64 8.6 47.5
21:35 1017 30.03 846 24.98 15.1 59.1 65 8.7 47.6
21:40 1017 30.03 846 24.98 14.9 58.8 67 8.9 48
21:45 1017 30.03 846 24.98 14.5 58.1 70 9 48.3
21:50 1017 30.03 847 25.01 14.3 57.7 72 9.3 48.7
21:55 1018 30.06 847 25.01 13.9 57 75 9.6 49.2
22:00 1018 30.06 847 25.01 13.5 56.4 79 9.9 49.9
22:05 1018 30.06 847 25.01 13.3 55.9 80 9.9 49.7
22:10 1018 30.06 847 25.01 13.1 55.6 81 9.8 49.7
22:15 1018 30.06 847 25.01 13.1 55.5 81 9.9 49.8
22:20 1018 30.06 847 25.01 13 55.3 82 9.9 49.9
22:25 1018 30.06 847 25.01 13 55.4 81 9.8 49.7
22:30 1018 30.06 847 25.01 13.2 55.7 80 9.9 49.9
22:35 1018 30.06 847 25.01 13.2 55.7 81 10 50.1
22:40 1018 30.06 847 25.01 13 55.4 81 9.9 49.8
22:45 1018 30.06 847 25.01 12.6 54.7 82 9.7 49.4
22:50 1018 30.06 847 25.01 12.5 54.5 82 9.6 49.2
22:55 1018 30.06 847 25.01 12.7 54.9 80 9.4 48.9
23:00 1018 30.06 847 25.01 12.8 55 79 9.3 48.7
23:05 1018 30.06 848 25.04 12.6 54.7 79 9.1 48.3
23:10 1018 30.06 848 25.04 12.5 54.6 80 9.2 48.5
23:15 1019 30.09 848 25.04 12.5 54.4 80 9.2 48.5
23:20 1019 30.09 848 25.04 12.4 54.4 80 9.1 48.3
23:25 1019 30.09 848 25.04 12.3 54.2 81 9.1 48.4
23:30 1019 30.09 848 25.04 12.5 54.6 79 9 48.3
23:35 1019 30.09 848 25.04 12.8 55.1 79 9.4 48.8
23:40 1019 30.09 848 25.04 13.1 55.6 78 9.4 49
23:45 1019 30.09 848 25.04 13.3 56 78 9.6 49.3
23:50 1019 30.09 848 25.04 13.3 56 78 9.5 49.2
23:55 1019 30.09 848 25.04 13.3 55.9 78 9.6 49.3
24:00 1019 30.09 848 25.04 13.3 56 79 9.7 49.5